Overview Statistics Trail Chart Weather Telemetry Raw packets
 

This is the latest recevied weather packets stored in our database for station/object WC4PEM-4. If no packets are shown the sender has not sent any weather packets the latest 10 day(s).

<< 1 2 3 4 5 6 >>
Time Temp. Humidity Pressure Rain* Wind** Luminosity Snow
1788564070 25.56° C 90% 1014.8 hPa 0 mm - - -
1788563770 25.56° C 90% 1014.5 hPa 0 mm - - -
1788563470 25.56° C 90% 1014.5 hPa 0 mm - - -
1788563170 25.56° C 89% 1014.3 hPa 0 mm - - -
1788562870 25.56° C 88% 1014.3 hPa 0 mm - - -
1788562683 24.44° C 96% 1013.5 hPa 0 mm - - -
1788562681 24.44° C 96% 1013.4 hPa 0 mm - - -
1788562570 26.11° C 87% 1014.4 hPa 0 mm - - -
1788562270 26.11° C 86% 1014.4 hPa 0 mm - - -
1788561970 26.11° C 86% 1014 hPa 0 mm - - -
1788561670 25.56° C 87% 1013.9 hPa 0 mm - - -
1788561525 25.56° C 86% 1014 hPa 0 mm - - -
1788561370 25.56° C 86% 1014 hPa 0 mm - - -
1788561070 25.56° C 86% 1014 hPa 0 mm - - -
1788560770 25.56° C 86% 1014 hPa 0 mm - - -
1788560470 25.56° C 86% 1014 hPa 0 mm - - -
1788560297 25.56° C 86% 1014.2 hPa 0 mm - - -
1788560170 25.56° C 86% 1014.2 hPa 0 mm - - -
1788559870 25.56° C 86% 1014.1 hPa 0 mm - - -
1788559570 26.11° C 85% 1014.1 hPa 0 mm - - -
1788559270 26.11° C 83% 1013.7 hPa 0 mm - - -
1788558970 26.11° C 82% 1013.4 hPa 0 mm - - -
1788558670 26.11° C 80% 1013.1 hPa 0 mm - - -
1788558370 26.67° C 81% 1013 hPa 0 mm - - -
1788558070 27.22° C 82% 1013.3 hPa 0 mm - - -

* Rain latest hour (hover to see other rain measurements)
** Current wind speed in m/s (hover to see current wind gust speed)